Página principal
METAR-TAF:

METAR-TAF

Aeroportos :

Lançarote, Espanha

latitude: 28-57N, longitude: 013-36W, altura: 14 m

Observação actual do tempo

O boletim foi feito há 18 minutos, às 19:30 UTC
Vento 9 kt de norte
Temperatura 19°C
Humidade 68%
Pressão 1016 hPa
Visibilidade 10 km ou mais
Poucas nuvensa uma altura de 4500 ft

METAR: GCRR 141930Z 35009KT 9999 FEW045 19/13 Q1016

Hora: 19:48 (19:48 UTC)

Previsão

O boletim foi feito há 5 horas e 48 minutos, às 14:00 UTC
Previsão válida de 14 às 15 UTC a 15 às 15 UTC
Vento 8 kt de nor-noroeste
Visibilidade 10 km ou mais
Nuvens dispersasa uma altura de 3500 ft
Temporariamente
de 14 às 15 UTC a 14 às 18 UTC
Vento 10 kt de nordeste
Tornando-se
de 15 às 04 UTC a 15 às 07 UTC
Vento 14 kt de oeste
Temporariamente
de 15 às 12 UTC a 15 às 15 UTC
chuva

TAF: GCRR 141400Z 1415/1515 34008KT 9999 SCT035 TX23/1514Z TN16/1506Z TEMPO 1415/1418 04010KT BECMG 1504/1507 28014KT TEMPO 1512/1515 RA

Observações e previsões do tempo de mais de 4000 aeroportos (mensagens METAR e TAF).

As estações disponíveis são os pontos amarelos e vermelhos sobre o mapa.

Mova o rato sobre o mapa para ver o nome da estação.

Depois clique no ponto para visualizar as observações e previsões meteorológicas.

Para alterar o mapa : clique nos botões verdes com uma cruz preta para aumentar o zoom; no botão verde com uma pitada de zoom; ou nas setas verdes para mapas adjacentes.


METAR-TAF: